Time;durP1;ratioP1;P1;durP2;ratioP2;P2;SDS_P1;SDS_P2;PMS_P1;PMS_P2;Temp;Humidity;BMP_temperature;BMP_pressure;BME280_temperature;BME280_humidity;BME280_pressure;Samples;Min_cycle;Max_cycle;Signal;HPM_P1;HPM_P2
2022/07/29 00:01:49;;;;;;;2.50;1.90;;;;;;;;;;5071211;28;20861;-84
2022/07/29 00:04:15;;;;;;;2.97;2.20;;;;;;;;;;5073075;28;20748;-84
2022/07/29 00:06:41;;;;;;;2.50;2.10;;;;;;;;;;5070438;28;20793;-84
2022/07/29 00:09:07;;;;;;;2.25;2.05;;;;;;;;;;5054909;28;20424;-84
2022/07/29 00:11:33;;;;;;;3.20;2.60;;;;;;;;;;5052859;28;20489;-83
2022/07/29 00:14:00;;;;;;;3.05;2.75;;;;;;;;;;5059163;28;20884;-83
2022/07/29 00:16:26;;;;;;;3.25;2.95;;;;;;;;;;5072202;28;20451;-84
2022/07/29 00:18:51;;;;;;;3.33;3.00;;;;;;;;;;5072616;28;20452;-84
2022/07/29 00:21:17;;;;;;;4.05;3.30;;;;;;;;;;5072954;28;20448;-85
2022/07/29 00:23:43;;;;;;;3.40;3.20;;;;;;;;;;5072531;28;20380;-84
2022/07/29 00:26:09;;;;;;;3.60;3.30;;;;;;;;;;5072539;28;20375;-84
2022/07/29 00:28:36;;;;;;;4.07;3.72;;;;;;;;;;5072307;28;20375;-84
2022/07/29 00:31:02;;;;;;;4.53;3.97;;;;;;;;;;5072454;28;20383;-84
2022/07/29 00:33:28;;;;;;;5.00;3.95;;;;;;;;;;5072363;28;20400;-84
2022/07/29 00:35:54;;;;;;;4.45;4.15;;;;;;;;;;5072260;28;20426;-84
2022/07/29 00:38:20;;;;;;;4.32;3.92;;;;;;;;;;5072333;28;20837;-84
2022/07/29 00:40:47;;;;;;;4.40;4.00;;;;;;;;;;5072303;28;20383;-84
2022/07/29 00:43:14;;;;;;;3.95;3.60;;;;;;;;;;5072219;28;20472;-83
2022/07/29 00:45:41;;;;;;;4.32;4.03;;;;;;;;;;5071966;28;20886;-84
2022/07/29 00:48:08;;;;;;;4.30;3.90;;;;;;;;;;5072209;28;20923;-84
2022/07/29 00:50:34;;;;;;;4.40;3.90;;;;;;;;;;5072231;28;20883;-84
2022/07/29 00:53:01;;;;;;;4.47;4.07;;;;;;;;;;5072082;28;20483;-83
2022/07/29 00:55:27;;;;;;;4.97;4.60;;;;;;;;;;5072200;28;20407;-84
2022/07/29 00:57:54;;;;;;;4.68;4.28;;;;;;;;;;5071936;28;20414;-84
2022/07/29 01:00:21;;;;;;;4.75;4.38;;;;;;;;;;5072132;28;20376;-84
2022/07/29 01:02:48;;;;;;;4.40;4.10;;;;;;;;;;5072122;28;20407;-84
2022/07/29 01:05:15;;;;;;;4.80;4.40;;;;;;;;;;5067755;28;20468;-85
2022/07/29 01:07:42;;;;;;;4.50;3.88;;;;;;;;;;5054298;28;20455;-84
2022/07/29 01:10:09;;;;;;;4.30;4.00;;;;;;;;;;5071970;28;20403;-83
2022/07/29 01:12:36;;;;;;;4.32;4.03;;;;;;;;;;5063155;28;20493;-84
2022/07/29 01:15:03;;;;;;;4.72;4.25;;;;;;;;;;5052900;28;20457;-84
2022/07/29 01:17:29;;;;;;;4.45;4.10;;;;;;;;;;5071869;28;20384;-84
2022/07/29 01:20:04;;;;;;;4.47;4.07;;;;;;;;;;5071981;28;20379;-84
2022/07/29 01:22:49;;;;;;;5.18;3.80;;;;;;;;;;5071915;28;20455;-84
2022/07/29 01:25:26;;;;;;;4.55;4.25;;;;;;;;;;5071576;28;20419;-84
2022/07/29 01:28:04;;;;;;;4.35;4.05;;;;;;;;;;5073562;28;20398;-84
2022/07/29 01:30:31;;;;;;;4.88;3.92;;;;;;;;;;5075741;28;20433;-84
2022/07/29 01:32:59;;;;;;;4.18;3.88;;;;;;;;;;5075754;28;20408;-84
2022/07/29 01:35:36;;;;;;;4.03;3.72;;;;;;;;;;5071905;28;20381;-84
2022/07/29 01:38:02;;;;;;;4.30;4.00;;;;;;;;;;5055647;28;20409;-84
2022/07/29 01:40:48;;;;;;;4.38;3.97;;;;;;;;;;5070096;28;20414;-84
2022/07/29 01:43:23;;;;;;;3.95;3.65;;;;;;;;;;5075414;28;20421;-84
2022/07/29 01:45:57;;;;;;;4.40;4.00;;;;;;;;;;5056267;28;20401;-84
2022/07/29 01:48:24;;;;;;;3.95;3.65;;;;;;;;;;5055279;28;20799;-84
2022/07/29 01:51:04;;;;;;;3.73;3.30;;;;;;;;;;5053798;28;20413;-84
2022/07/29 01:53:42;;;;;;;3.60;3.30;;;;;;;;;;5073705;28;20475;-84
2022/07/29 01:56:10;;;;;;;3.78;3.47;;;;;;;;;;5075279;28;20429;-84
2022/07/29 01:58:38;;;;;;;4.40;3.10;;;;;;;;;;5075298;28;20379;-84
2022/07/29 02:01:05;;;;;;;3.75;3.45;;;;;;;;;;5063240;28;20386;-84
2022/07/29 02:03:33;;;;;;;3.57;3.27;;;;;;;;;;5061019;28;20387;-84
2022/07/29 02:06:00;;;;;;;3.70;3.40;;;;;;;;;;5075103;28;20744;-84
2022/07/29 02:08:26;;;;;;;3.73;3.43;;;;;;;;;;5075187;28;20547;-84
2022/07/29 02:10:53;;;;;;;3.90;3.53;;;;;;;;;;5066400;28;20746;-84
2022/07/29 02:13:21;;;;;;;4.00;3.70;;;;;;;;;;5054863;28;20898;-84
2022/07/29 02:15:48;;;;;;;4.10;3.80;;;;;;;;;;5062066;28;20823;-84
2022/07/29 02:18:18;;;;;;;3.97;3.67;;;;;;;;;;5074905;28;20881;-84
2022/07/29 02:20:47;;;;;;;4.20;3.90;;;;;;;;;;5074805;28;20464;-84
2022/07/29 02:23:14;;;;;;;4.18;3.75;;;;;;;;;;5062491;28;20461;-84
2022/07/29 02:25:41;;;;;;;3.88;3.60;;;;;;;;;;5059212;28;20391;-84
2022/07/29 02:28:08;;;;;;;3.47;3.25;;;;;;;;;;5074958;28;20383;-85
2022/07/29 02:30:36;;;;;;;3.80;3.50;;;;;;;;;;5074668;28;20766;-84
2022/07/29 02:33:03;;;;;;;3.90;3.60;;;;;;;;;;5074675;28;20414;-83
2022/07/29 02:35:30;;;;;;;3.70;3.40;;;;;;;;;;5074655;28;20441;-83
2022/07/29 02:40:42;;;;;;;4.32;3.78;;;;;;;;;;5074669;28;20417;-84
2022/07/29 02:43:09;;;;;;;3.40;3.20;;;;;;;;;;5074296;28;20407;-84
2022/07/29 02:45:35;;;;;;;4.25;3.95;;;;;;;;;;5074680;28;20384;-84
2022/07/29 02:48:05;;;;;;;3.80;3.50;;;;;;;;;;5070777;28;20420;-85
2022/07/29 02:50:37;;;;;;;3.97;3.67;;;;;;;;;;5054791;28;20374;-85
2022/07/29 02:53:07;;;;;;;3.53;3.33;;;;;;;;;;5070311;28;20411;-85
2022/07/29 02:55:47;;;;;;;3.50;3.30;;;;;;;;;;5074565;28;20384;-84
2022/07/29 02:58:29;;;;;;;3.85;3.47;;;;;;;;;;5074196;28;20382;-85
2022/07/29 03:01:01;;;;;;;3.33;3.13;;;;;;;;;;5074171;28;20392;-85
2022/07/29 03:03:30;;;;;;;3.75;3.45;;;;;;;;;;5074382;28;20391;-85
2022/07/29 03:05:57;;;;;;;3.80;3.50;;;;;;;;;;5074195;28;20874;-85
2022/07/29 03:08:23;;;;;;;4.07;3.78;;;;;;;;;;5073966;28;20387;-84
2022/07/29 03:10:49;;;;;;;4.37;3.97;;;;;;;;;;5074293;28;20406;-85
2022/07/29 03:13:16;;;;;;;4.70;4.25;;;;;;;;;;5053049;28;20469;-84
2022/07/29 03:15:45;;;;;;;4.33;3.93;;;;;;;;;;5073769;28;20384;-85
2022/07/29 03:18:12;;;;;;;4.20;3.90;;;;;;;;;;5073947;28;20380;-84
2022/07/29 03:20:38;;;;;;;3.80;3.50;;;;;;;;;;5073590;28;20372;-84
2022/07/29 03:23:04;;;;;;;3.90;3.60;;;;;;;;;;5073730;28;20451;-84
2022/07/29 03:25:31;;;;;;;4.07;3.77;;;;;;;;;;5073937;28;20477;-85
2022/07/29 03:27:57;;;;;;;3.90;3.60;;;;;;;;;;5073495;28;20387;-84
2022/07/29 03:30:23;;;;;;;4.00;3.70;;;;;;;;;;5073517;28;20963;-84
2022/07/29 03:32:50;;;;;;;3.55;3.35;;;;;;;;;;5066202;28;20410;-85
2022/07/29 03:35:16;;;;;;;3.40;3.17;;;;;;;;;;5063016;28;20388;-85
2022/07/29 03:37:42;;;;;;;3.45;3.20;;;;;;;;;;5054375;28;20389;-85
2022/07/29 03:40:10;;;;;;;3.63;3.33;;;;;;;;;;5065185;28;20381;-84
2022/07/29 03:42:38;;;;;;;3.72;3.42;;;;;;;;;;5073299;28;20463;-85
2022/07/29 03:45:06;;;;;;;3.60;3.35;;;;;;;;;;5060020;28;20386;-85
2022/07/29 03:47:33;;;;;;;3.92;3.63;;;;;;;;;;5073333;28;20455;-84
2022/07/29 03:50:06;;;;;;;3.92;3.63;;;;;;;;;;5072298;28;20384;-84
2022/07/29 03:52:33;;;;;;;3.92;3.55;;;;;;;;;;5061521;28;20381;-84
2022/07/29 03:54:59;;;;;;;3.95;3.65;;;;;;;;;;5056921;28;20423;-85
2022/07/29 03:57:27;;;;;;;4.00;3.63;;;;;;;;;;5073057;28;20386;-85
2022/07/29 03:59:54;;;;;;;3.60;3.33;;;;;;;;;;5070488;28;20375;-85
2022/07/29 04:02:20;;;;;;;3.78;3.47;;;;;;;;;;5061356;28;20410;-85
2022/07/29 04:04:46;;;;;;;4.28;3.80;;;;;;;;;;5072899;28;20383;-84
2022/07/29 04:07:13;;;;;;;4.20;3.80;;;;;;;;;;5072781;28;20380;-85
2022/07/29 04:09:39;;;;;;;3.75;3.50;;;;;;;;;;5072847;28;20376;-85
2022/07/29 04:12:05;;;;;;;4.53;4.13;;;;;;;;;;5072730;28;20383;-85
2022/07/29 04:14:32;;;;;;;3.93;3.63;;;;;;;;;;5067943;28;20421;-85
2022/07/29 04:16:58;;;;;;;4.00;3.60;;;;;;;;;;5053420;28;20391;-85
2022/07/29 04:19:24;;;;;;;4.13;3.83;;;;;;;;;;5063991;28;20368;-85
2022/07/29 04:21:51;;;;;;;3.80;3.50;;;;;;;;;;5060940;28;20447;-85
2022/07/29 04:24:17;;;;;;;4.00;3.70;;;;;;;;;;5066228;28;20734;-85
2022/07/29 04:26:43;;;;;;;4.20;3.90;;;;;;;;;;5065466;28;20853;-84
2022/07/29 04:29:09;;;;;;;6.75;3.70;;;;;;;;;;5072375;28;20376;-85
2022/07/29 04:31:35;;;;;;;4.07;3.67;;;;;;;;;;5072556;28;20489;-85
2022/07/29 04:34:01;;;;;;;3.80;3.45;;;;;;;;;;5072248;28;20438;-85
2022/07/29 04:36:27;;;;;;;3.58;3.38;;;;;;;;;;5056491;28;20900;-85
2022/07/29 04:38:53;;;;;;;3.53;3.30;;;;;;;;;;5067606;28;20372;-85
2022/07/29 04:41:19;;;;;;;3.53;3.22;;;;;;;;;;5067896;28;20861;-85
2022/07/29 04:43:45;;;;;;;3.60;3.30;;;;;;;;;;5052312;28;20409;-86
2022/07/29 04:46:11;;;;;;;4.13;3.72;;;;;;;;;;5053693;28;20460;-85
2022/07/29 04:48:37;;;;;;;4.07;3.67;;;;;;;;;;5071671;28;20464;-85
2022/07/29 04:51:03;;;;;;;3.63;3.20;;;;;;;;;;5070765;28;20379;-85
2022/07/29 04:53:29;;;;;;;3.47;3.20;;;;;;;;;;5071831;28;20410;-86
2022/07/29 04:55:55;;;;;;;3.72;2.95;;;;;;;;;;5072153;28;20399;-85
2022/07/29 04:58:23;;;;;;;3.20;3.00;;;;;;;;;;5072270;28;20403;-85
2022/07/29 05:00:49;;;;;;;3.30;3.00;;;;;;;;;;5059060;28;20478;-85
2022/07/29 05:03:15;;;;;;;3.03;2.83;;;;;;;;;;5052263;28;20384;-85
2022/07/29 05:05:42;;;;;;;3.10;2.80;;;;;;;;;;5053229;28;20384;-85
2022/07/29 05:08:08;;;;;;;3.08;2.80;;;;;;;;;;5060139;28;20380;-84
2022/07/29 05:10:37;;;;;;;2.83;2.50;;;;;;;;;;5072087;28;20454;-85
2022/07/29 05:13:04;;;;;;;2.85;2.45;;;;;;;;;;5054130;28;20441;-85
2022/07/29 05:15:30;;;;;;;2.97;2.77;;;;;;;;;;5070908;28;20448;-85
2022/07/29 05:17:56;;;;;;;2.53;2.33;;;;;;;;;;5069920;28;20384;-84
2022/07/29 05:20:26;;;;;;;3.05;2.72;;;;;;;;;;5051958;28;20390;-84
2022/07/29 05:22:52;;;;;;;2.90;2.70;;;;;;;;;;5061468;28;20450;-84
2022/07/29 05:25:18;;;;;;;3.30;2.90;;;;;;;;;;5070553;28;20795;-82
2022/07/29 05:27:44;;;;;;;3.17;2.70;;;;;;;;;;5071961;28;20421;-82
2022/07/29 05:30:10;;;;;;;2.93;2.73;;;;;;;;;;5071946;28;20748;-84
2022/07/29 05:32:36;;;;;;;2.88;2.67;;;;;;;;;;5064492;28;20385;-85
2022/07/29 05:35:02;;;;;;;2.85;2.65;;;;;;;;;;5063473;28;20415;-85
2022/07/29 05:37:28;;;;;;;2.78;2.58;;;;;;;;;;5064990;28;20478;-82
2022/07/29 05:39:54;;;;;;;2.80;2.60;;;;;;;;;;5070179;28;20463;-82
2022/07/29 05:42:20;;;;;;;2.80;2.60;;;;;;;;;;5061109;28;20425;-81
2022/07/29 05:44:47;;;;;;;2.72;2.50;;;;;;;;;;5054591;28;20856;-81
2022/07/29 05:47:13;;;;;;;2.50;2.40;;;;;;;;;;5070423;28;20753;-81
2022/07/29 05:49:39;;;;;;;2.58;2.38;;;;;;;;;;5054585;28;20850;-82
2022/07/29 05:52:05;;;;;;;2.65;2.45;;;;;;;;;;5050572;28;20488;-82
2022/07/29 05:54:31;;;;;;;3.33;2.97;;;;;;;;;;5065789;28;20400;-82
2022/07/29 05:56:57;;;;;;;3.60;3.30;;;;;;;;;;5064663;28;20914;-82
2022/07/29 05:59:23;;;;;;;3.70;3.40;;;;;;;;;;5069622;28;20376;-82
2022/07/29 06:01:49;;;;;;;3.80;3.17;;;;;;;;;;5058010;28;20375;-83
2022/07/29 06:04:15;;;;;;;3.10;2.90;;;;;;;;;;5061810;28;20372;-85
2022/07/29 06:06:41;;;;;;;3.90;2.90;;;;;;;;;;5069434;28;20775;-86
2022/07/29 06:09:07;;;;;;;3.90;3.08;;;;;;;;;;5066351;28;20384;-85
2022/07/29 06:11:33;;;;;;;3.58;2.90;;;;;;;;;;5071073;28;20386;-85
2022/07/29 06:13:59;;;;;;;3.47;3.10;;;;;;;;;;5072536;28;20435;-85
2022/07/29 06:16:25;;;;;;;3.17;2.97;;;;;;;;;;5074376;28;20721;-85
2022/07/29 06:18:52;;;;;;;3.25;3.05;;;;;;;;;;5061454;28;20383;-85
2022/07/29 06:21:18;;;;;;;4.03;3.15;;;;;;;;;;5074402;28;20368;-85
2022/07/29 06:23:45;;;;;;;3.07;2.77;;;;;;;;;;5073089;28;20430;-85
2022/07/29 06:26:11;;;;;;;4.20;2.23;;;;;;;;;;5074583;28;20459;-86
2022/07/29 06:28:37;;;;;;;3.03;2.78;;;;;;;;;;5074663;28;20445;-83
2022/07/29 06:31:03;;;;;;;3.75;3.25;;;;;;;;;;5075078;28;20573;-84
2022/07/29 06:33:29;;;;;;;3.50;2.95;;;;;;;;;;5073561;28;20399;-83
2022/07/29 06:35:55;;;;;;;4.15;3.63;;;;;;;;;;5074609;28;20394;-84
2022/07/29 06:38:23;;;;;;;3.28;2.97;;;;;;;;;;5073962;28;20411;-84
2022/07/29 06:41:10;;;;;;;4.20;3.38;;;;;;;;;;5074488;28;20445;-84
2022/07/29 06:43:37;;;;;;;5.13;3.13;;;;;;;;;;5074918;28;20441;-84
2022/07/29 06:46:05;;;;;;;4.40;3.03;;;;;;;;;;5074592;28;20382;-84
2022/07/29 06:48:32;;;;;;;3.15;2.90;;;;;;;;;;5074579;28;20380;-84
2022/07/29 06:50:58;;;;;;;3.47;3.17;;;;;;;;;;5074583;28;20425;-84
2022/07/29 06:53:24;;;;;;;3.72;3.40;;;;;;;;;;5074530;28;20414;-85
2022/07/29 06:55:50;;;;;;;3.20;2.90;;;;;;;;;;5074207;28;20371;-84
2022/07/29 06:58:17;;;;;;;4.90;2.92;;;;;;;;;;5074606;28;20787;-84
2022/07/29 07:00:44;;;;;;;3.30;3.00;;;;;;;;;;5074317;28;20737;-84
2022/07/29 07:03:11;;;;;;;3.35;3.00;;;;;;;;;;5074282;28;20868;-84
2022/07/29 07:05:37;;;;;;;2.92;2.58;;;;;;;;;;5074215;28;20875;-85
2022/07/29 07:08:03;;;;;;;3.25;2.95;;;;;;;;;;5074169;28;20391;-84
2022/07/29 07:10:29;;;;;;;3.40;3.13;;;;;;;;;;5055731;28;20740;-84
2022/07/29 07:12:55;;;;;;;2.70;2.50;;;;;;;;;;5058696;28;20459;-84
2022/07/29 07:15:21;;;;;;;3.20;2.90;;;;;;;;;;5073892;28;20385;-84
2022/07/29 07:17:50;;;;;;;2.70;2.50;;;;;;;;;;5073888;28;20375;-84
2022/07/29 07:20:17;;;;;;;2.72;2.53;;;;;;;;;;5074132;28;20380;-84
2022/07/29 07:22:43;;;;;;;2.83;2.55;;;;;;;;;;5073924;28;20380;-84
2022/07/29 07:25:10;;;;;;;2.63;2.42;;;;;;;;;;5073554;28;20382;-84
2022/07/29 07:27:36;;;;;;;3.22;2.85;;;;;;;;;;5054656;28;20386;-84
2022/07/29 07:30:05;;;;;;;3.20;2.90;;;;;;;;;;5073738;28;20898;-84
2022/07/29 07:32:31;;;;;;;2.83;2.30;;;;;;;;;;5073649;28;20457;-84
2022/07/29 07:34:58;;;;;;;3.20;2.92;;;;;;;;;;5073504;28;20411;-84
2022/07/29 07:37:24;;;;;;;2.80;2.45;;;;;;;;;;5069879;28;20418;-84
2022/07/29 07:39:51;;;;;;;3.33;3.03;;;;;;;;;;5053487;28;20480;-86
2022/07/29 07:42:17;;;;;;;3.20;2.92;;;;;;;;;;5056905;28;20932;-85
2022/07/29 07:44:43;;;;;;;2.70;2.50;;;;;;;;;;5057932;28;20864;-86
2022/07/29 07:47:09;;;;;;;3.13;2.83;;;;;;;;;;5049674;28;20897;-85
2022/07/29 07:49:35;;;;;;;3.55;3.03;;;;;;;;;;5066180;28;20414;-84
2022/07/29 07:52:01;;;;;;;2.88;2.67;;;;;;;;;;5054025;28;20381;-84
2022/07/29 07:54:27;;;;;;;3.40;3.10;;;;;;;;;;5053954;28;20480;-84
2022/07/29 07:56:53;;;;;;;3.65;3.03;;;;;;;;;;5054911;28;21122;-82
2022/07/29 07:59:19;;;;;;;3.55;2.90;;;;;;;;;;5064957;28;20463;-84
2022/07/29 08:01:45;;;;;;;4.73;3.10;;;;;;;;;;5069955;28;20399;-83
2022/07/29 08:04:11;;;;;;;3.17;2.85;;;;;;;;;;5059973;28;20415;-84
2022/07/29 08:06:37;;;;;;;3.65;3.00;;;;;;;;;;5057787;28;20378;-84
2022/07/29 08:09:04;;;;;;;5.03;2.80;;;;;;;;;;5072926;28;20391;-83
2022/07/29 08:11:30;;;;;;;3.13;2.40;;;;;;;;;;5064279;28;20401;-81
2022/07/29 08:13:56;;;;;;;3.75;2.75;;;;;;;;;;5058515;28;20899;-81
2022/07/29 08:16:22;;;;;;;3.50;2.73;;;;;;;;;;5065992;28;20415;-81
2022/07/29 08:18:48;;;;;;;2.90;2.28;;;;;;;;;;5070957;28;20409;-82
2022/07/29 08:21:15;;;;;;;6.10;2.90;;;;;;;;;;5062865;28;20896;-82
2022/07/29 08:23:52;;;;;;;3.10;2.28;;;;;;;;;;5068836;28;20458;-82
2022/07/29 08:26:19;;;;;;;3.17;2.22;;;;;;;;;;5067411;28;20399;-80
2022/07/29 08:28:49;;;;;;;2.30;2.10;;;;;;;;;;5055006;28;20897;-80
2022/07/29 08:31:15;;;;;;;2.67;2.30;;;;;;;;;;5048479;28;20406;-82
2022/07/29 08:33:41;;;;;;;2.30;2.10;;;;;;;;;;5057045;28;20938;-81
2022/07/29 08:36:07;;;;;;;2.17;1.98;;;;;;;;;;5066308;28;20466;-79
2022/07/29 08:38:33;;;;;;;2.15;1.85;;;;;;;;;;5053439;28;20393;-79
2022/07/29 08:41:01;;;;;;;2.13;1.88;;;;;;;;;;5067878;28;20393;-82
2022/07/29 08:43:31;;;;;;;2.25;1.70;;;;;;;;;;5065608;28;20377;-81
2022/07/29 08:45:57;;;;;;;2.13;1.90;;;;;;;;;;5050891;28;20407;-82
2022/07/29 08:48:24;;;;;;;2.20;2.00;;;;;;;;;;5058094;28;20888;-81
2022/07/29 08:50:52;;;;;;;3.30;1.90;;;;;;;;;;5068691;28;20393;-81
2022/07/29 08:53:19;;;;;;;2.10;1.90;;;;;;;;;;5067474;28;20404;-82
2022/07/29 08:55:46;;;;;;;2.83;2.20;;;;;;;;;;5057988;28;20400;-81
2022/07/29 08:58:13;;;;;;;2.63;1.95;;;;;;;;;;5055817;28;20396;-82
2022/07/29 09:00:41;;;;;;;2.85;1.95;;;;;;;;;;5059780;28;20388;-82
2022/07/29 09:03:08;;;;;;;2.20;1.77;;;;;;;;;;5059871;28;20386;-82
2022/07/29 09:05:34;;;;;;;2.92;1.90;;;;;;;;;;5058364;28;20392;-83
2022/07/29 09:08:01;;;;;;;2.25;2.00;;;;;;;;;;5072165;28;20906;-85
2022/07/29 09:10:27;;;;;;;2.20;2.00;;;;;;;;;;5064522;28;20441;-84
2022/07/29 09:12:55;;;;;;;2.25;2.00;;;;;;;;;;5058446;28;20772;-87
2022/07/29 09:15:21;;;;;;;2.33;1.90;;;;;;;;;;5060611;28;20406;-83
2022/07/29 09:17:48;;;;;;;2.03;1.60;;;;;;;;;;5051860;28;20373;-84
2022/07/29 09:20:16;;;;;;;3.80;1.58;;;;;;;;;;5049675;28;20404;-83
2022/07/29 09:22:42;;;;;;;3.08;1.80;;;;;;;;;;5051684;28;20830;-83
2022/07/29 09:25:08;;;;;;;2.63;2.00;;;;;;;;;;5066167;28;20396;-84
2022/07/29 09:27:35;;;;;;;2.40;1.80;;;;;;;;;;5066812;28;20432;-84
2022/07/29 09:30:11;;;;;;;3.00;1.95;;;;;;;;;;5056851;28;20547;-84
2022/07/29 09:32:55;;;;;;;2.10;1.90;;;;;;;;;;5053139;28;20389;-84
2022/07/29 09:35:23;;;;;;;2.30;2.03;;;;;;;;;;5051480;28;20488;-84
2022/07/29 09:37:49;;;;;;;3.15;2.13;;;;;;;;;;5057272;28;20920;-83
2022/07/29 09:40:16;;;;;;;2.38;1.80;;;;;;;;;;5053003;28;20394;-83
2022/07/29 09:42:42;;;;;;;2.63;2.00;;;;;;;;;;5054579;28;20943;-83
2022/07/29 09:45:08;;;;;;;2.35;2.15;;;;;;;;;;5053372;28;20885;-84
2022/07/29 09:48:03;;;;;;;2.10;1.92;;;;;;;;;;5064724;28;20417;-84
2022/07/29 09:50:35;;;;;;;2.40;2.20;;;;;;;;;;5069750;28;20430;-84
2022/07/29 09:53:01;;;;;;;4.70;2.25;;;;;;;;;;5072813;28;20923;-85
2022/07/29 09:55:27;;;;;;;2.20;2.00;;;;;;;;;;5052617;28;20401;-84
2022/07/29 09:57:53;;;;;;;3.03;2.67;;;;;;;;;;5055269;28;20388;-82
2022/07/29 10:00:21;;;;;;;2.30;2.10;;;;;;;;;;5070896;28;20404;-84
2022/07/29 10:02:47;;;;;;;5.75;2.25;;;;;;;;;;5061527;28;20417;-82
2022/07/29 10:05:18;;;;;;;2.40;2.20;;;;;;;;;;5060932;28;20400;-82
2022/07/29 10:07:44;;;;;;;3.78;2.50;;;;;;;;;;5055659;28;20393;-82
2022/07/29 10:10:10;;;;;;;3.08;2.45;;;;;;;;;;5071799;28;20402;-82
2022/07/29 10:12:48;;;;;;;2.88;2.65;;;;;;;;;;5065228;28;20446;-82
2022/07/29 10:15:15;;;;;;;4.90;3.40;;;;;;;;;;5055137;28;20953;-82
2022/07/29 10:17:41;;;;;;;3.30;3.00;;;;;;;;;;5056630;28;20386;-82
2022/07/29 10:20:08;;;;;;;3.53;3.22;;;;;;;;;;5070027;28;20860;-84
2022/07/29 10:22:34;;;;;;;5.22;2.90;;;;;;;;;;5068072;28;20376;-85
2022/07/29 10:25:00;;;;;;;2.95;2.65;;;;;;;;;;5062398;28;20866;-83
2022/07/29 10:27:26;;;;;;;5.13;3.05;;;;;;;;;;5073960;28;20417;-83
2022/07/29 10:29:54;;;;;;;4.75;4.10;;;;;;;;;;5056623;28;20394;-83
2022/07/29 10:32:30;;;;;;;3.60;2.97;;;;;;;;;;5056360;28;20383;-83
2022/07/29 10:35:15;;;;;;;3.60;3.17;;;;;;;;;;5070184;28;20404;-83
2022/07/29 10:38:00;;;;;;;4.13;3.10;;;;;;;;;;5074342;28;20380;-84
2022/07/29 10:43:24;;;;;;;3.30;3.03;;;;;;;;;;5071243;28;20467;-85
2022/07/29 10:45:55;;;;;;;2.72;2.47;;;;;;;;;;5074514;28;20872;-85
2022/07/29 10:48:21;;;;;;;2.72;2.53;;;;;;;;;;5065103;28;20399;-85
2022/07/29 10:50:56;;;;;;;3.25;2.85;;;;;;;;;;5051777;28;20452;-87
2022/07/29 10:53:23;;;;;;;5.97;4.32;;;;;;;;;;5054015;28;20446;-84
2022/07/29 10:55:50;;;;;;;3.45;3.15;;;;;;;;;;5054787;28;20423;-86
2022/07/29 10:58:19;;;;;;;3.28;3.05;;;;;;;;;;5071196;28;20401;-86
2022/07/29 11:00:49;;;;;;;3.00;2.70;;;;;;;;;;5074115;28;20424;-86
2022/07/29 11:03:34;;;;;;;2.97;2.60;;;;;;;;;;5074237;28;20422;-85
2022/07/29 11:06:00;;;;;;;4.10;3.70;;;;;;;;;;5074080;28;20479;-86
2022/07/29 11:08:26;;;;;;;6.50;5.88;;;;;;;;;;5074168;28;20371;-86
2022/07/29 11:10:53;;;;;;;5.82;5.30;;;;;;;;;;5065574;28;20893;-86
2022/07/29 11:13:38;;;;;;;7.05;6.38;;;;;;;;;;5059485;28;20416;-85
2022/07/29 11:16:05;;;;;;;9.90;8.90;;;;;;;;;;5073837;28;20490;-86
2022/07/29 11:18:31;;;;;;;3.95;3.55;;;;;;;;;;5045604;28;20860;-85
2022/07/29 11:20:59;;;;;;;8.40;7.55;;;;;;;;;;5073855;28;20387;-86
2022/07/29 11:23:26;;;;;;;3.92;3.38;;;;;;;;;;5073769;28;20383;-85
2022/07/29 11:26:10;;;;;;;4.38;3.60;;;;;;;;;;5073714;28;20375;-86
2022/07/29 11:28:42;;;;;;;4.13;3.73;;;;;;;;;;5073472;28;20413;-86
2022/07/29 11:31:10;;;;;;;2.75;2.55;;;;;;;;;;5064851;28;20871;-86
2022/07/29 11:33:36;;;;;;;4.28;3.20;;;;;;;;;;5066124;28;20972;-86
2022/07/29 11:36:10;;;;;;;3.20;2.55;;;;;;;;;;5053405;28;20885;-84
2022/07/29 11:38:36;;;;;;;4.80;4.10;;;;;;;;;;5065254;28;20426;-85
2022/07/29 11:41:18;;;;;;;2.95;2.10;;;;;;;;;;5073604;28;20463;-86
2022/07/29 11:44:02;;;;;;;2.40;2.17;;;;;;;;;;5073424;28;20433;-85
2022/07/29 11:46:43;;;;;;;3.63;2.15;;;;;;;;;;5073620;28;20384;-85
2022/07/29 11:49:09;;;;;;;2.90;1.92;;;;;;;;;;5073281;28;20462;-86
2022/07/29 11:51:37;;;;;;;2.05;1.95;;;;;;;;;;5069131;28;20381;-85
2022/07/29 11:54:04;;;;;;;3.75;2.95;;;;;;;;;;5053216;28;20405;-86
2022/07/29 11:56:32;;;;;;;5.75;3.60;;;;;;;;;;5049063;28;20912;-86
2022/07/29 11:59:05;;;;;;;3.10;2.10;;;;;;;;;;5073144;28;20371;-86
2022/07/29 12:01:31;;;;;;;2.63;1.63;;;;;;;;;;5055936;28;20405;-85
2022/07/29 12:04:06;;;;;;;3.15;1.90;;;;;;;;;;5073060;28;20384;-86
2022/07/29 12:06:33;;;;;;;2.28;1.80;;;;;;;;;;5067428;28;20405;-84
2022/07/29 12:09:00;;;;;;;2.47;1.70;;;;;;;;;;5069646;28;20372;-85
2022/07/29 12:11:26;;;;;;;2.30;2.10;;;;;;;;;;5061884;28;20877;-85
2022/07/29 12:13:52;;;;;;;2.97;2.50;;;;;;;;;;5060527;28;20411;-86
2022/07/29 12:16:18;;;;;;;3.87;2.90;;;;;;;;;;5061800;28;20407;-85
2022/07/29 12:18:55;;;;;;;3.88;2.90;;;;;;;;;;5057165;28;20380;-83
2022/07/29 12:21:21;;;;;;;2.30;1.73;;;;;;;;;;5072831;28;20368;-87
2022/07/29 12:23:54;;;;;;;2.00;1.80;;;;;;;;;;5072628;28;20417;-86
2022/07/29 12:26:20;;;;;;;2.30;2.00;;;;;;;;;;5072744;28;20437;-87
2022/07/29 12:28:46;;;;;;;2.70;2.03;;;;;;;;;;5070907;28;20471;-87
2022/07/29 12:31:15;;;;;;;2.28;1.75;;;;;;;;;;5071969;28;20383;-87
2022/07/29 12:33:42;;;;;;;2.40;2.20;;;;;;;;;;5062529;28;20459;-84
2022/07/29 12:36:08;;;;;;;2.65;2.08;;;;;;;;;;5046504;28;20456;-84
2022/07/29 12:38:36;;;;;;;2.65;2.00;;;;;;;;;;5057093;28;20420;-84
2022/07/29 12:41:03;;;;;;;2.70;2.00;;;;;;;;;;5071432;28;20488;-84
2022/07/29 12:43:29;;;;;;;1.90;1.80;;;;;;;;;;5063427;28;20866;-85
2022/07/29 12:45:57;;;;;;;1.90;1.67;;;;;;;;;;5052734;28;20390;-84
2022/07/29 12:48:42;;;;;;;2.42;1.60;;;;;;;;;;5056285;28;20381;-85
2022/07/29 12:51:09;;;;;;;2.60;1.90;;;;;;;;;;5066541;28;20379;-86
2022/07/29 12:53:36;;;;;;;3.42;1.60;;;;;;;;;;5072274;28;20411;-85
2022/07/29 12:56:03;;;;;;;2.25;1.90;;;;;;;;;;5072356;28;20384;-85
2022/07/29 12:58:33;;;;;;;3.97;3.03;;;;;;;;;;5071902;28;20399;-85
2022/07/29 13:01:07;;;;;;;3.42;1.80;;;;;;;;;;5060557;28;20400;-84
2022/07/29 13:03:43;;;;;;;2.35;1.90;;;;;;;;;;5061383;28;20419;-84
2022/07/29 13:06:27;;;;;;;2.20;1.73;;;;;;;;;;5063942;28;20399;-85
2022/07/29 13:08:59;;;;;;;1.80;1.70;;;;;;;;;;5071881;28;20379;-85
2022/07/29 13:11:44;;;;;;;2.63;1.63;;;;;;;;;;5058610;28;20382;-84
2022/07/29 13:14:12;;;;;;;3.25;2.40;;;;;;;;;;5061417;28;20436;-85
2022/07/29 13:16:58;;;;;;;3.70;2.20;;;;;;;;;;5056767;28;20476;-85
2022/07/29 13:19:33;;;;;;;2.90;2.00;;;;;;;;;;5043195;28;20726;-85
2022/07/29 13:21:58;;;;;;;3.42;1.88;;;;;;;;;;5066441;28;20437;-84
2022/07/29 13:24:24;;;;;;;2.40;1.90;;;;;;;;;;5067603;28;20872;-84
2022/07/29 13:26:51;;;;;;;2.85;2.00;;;;;;;;;;5050345;28;20394;-84
2022/07/29 13:29:17;;;;;;;3.15;2.10;;;;;;;;;;5069759;28;20432;-84
2022/07/29 13:31:43;;;;;;;2.23;1.93;;;;;;;;;;5072672;28;20480;-83
2022/07/29 13:34:10;;;;;;;2.50;1.70;;;;;;;;;;5075853;28;20411;-83
2022/07/29 13:36:36;;;;;;;2.58;1.90;;;;;;;;;;5064660;28;20393;-84
2022/07/29 13:39:02;;;;;;;4.20;1.58;;;;;;;;;;5044202;28;20387;-83
2022/07/29 13:41:29;;;;;;;2.78;1.50;;;;;;;;;;5069211;28;20489;-83
2022/07/29 13:43:55;;;;;;;2.45;1.30;;;;;;;;;;5055416;28;20750;-83
2022/07/29 13:46:21;;;;;;;2.58;1.42;;;;;;;;;;5066038;28;20394;-84
2022/07/29 13:48:47;;;;;;;1.80;1.30;;;;;;;;;;5061458;28;20451;-83
2022/07/29 13:51:13;;;;;;;2.30;1.40;;;;;;;;;;5074883;28;20509;-82
2022/07/29 13:53:39;;;;;;;3.20;1.20;;;;;;;;;;5074381;28;20408;-83
2022/07/29 13:56:08;;;;;;;2.77;1.20;;;;;;;;;;5055452;28;20373;-83
2022/07/29 13:58:34;;;;;;;1.45;1.08;;;;;;;;;;5060595;28;20736;-82
2022/07/29 14:01:00;;;;;;;2.35;1.20;;;;;;;;;;5064331;28;20382;-83
2022/07/29 14:03:26;;;;;;;1.53;1.40;;;;;;;;;;5065359;28;20407;-83
2022/07/29 14:05:52;;;;;;;2.38;1.60;;;;;;;;;;5070771;28;20392;-83
2022/07/29 14:08:18;;;;;;;1.88;1.45;;;;;;;;;;5063983;28;20455;-83
2022/07/29 14:10:44;;;;;;;2.05;1.50;;;;;;;;;;5075457;28;20764;-83
2022/07/29 14:13:10;;;;;;;3.97;2.00;;;;;;;;;;5064297;28;20464;-83
2022/07/29 14:15:36;;;;;;;2.42;1.67;;;;;;;;;;5059095;28;20456;-82
2022/07/29 14:18:03;;;;;;;2.17;1.60;;;;;;;;;;5066089;28;20376;-83
2022/07/29 14:20:29;;;;;;;2.33;1.50;;;;;;;;;;5065853;28;20879;-83
2022/07/29 14:22:56;;;;;;;1.80;1.50;;;;;;;;;;5075005;28;20458;-82
2022/07/29 14:25:22;;;;;;;2.27;1.43;;;;;;;;;;5073350;28;20373;-83
2022/07/29 14:27:48;;;;;;;2.38;1.40;;;;;;;;;;5069959;28;20746;-83
2022/07/29 14:30:14;;;;;;;2.88;1.60;;;;;;;;;;5054096;28;20488;-83
2022/07/29 14:32:40;;;;;;;3.25;1.80;;;;;;;;;;5051345;28;20377;-83
2022/07/29 14:35:07;;;;;;;2.45;1.60;;;;;;;;;;5053089;28;20813;-82
2022/07/29 14:37:35;;;;;;;2.20;1.70;;;;;;;;;;5055930;28;20480;-82
2022/07/29 14:40:03;;;;;;;3.28;1.70;;;;;;;;;;5065380;28;20372;-81
2022/07/29 14:42:29;;;;;;;2.85;1.80;;;;;;;;;;5055758;28;20386;-81
2022/07/29 14:44:55;;;;;;;1.80;1.70;;;;;;;;;;5056324;28;20396;-80
2022/07/29 14:47:21;;;;;;;2.75;2.00;;;;;;;;;;5065317;28;20383;-82
2022/07/29 14:49:47;;;;;;;2.83;1.90;;;;;;;;;;5067983;28;20379;-81
2022/07/29 14:52:13;;;;;;;3.00;2.00;;;;;;;;;;5065552;28;20385;-82
2022/07/29 14:54:39;;;;;;;3.35;2.13;;;;;;;;;;5069511;28;20799;-82